sensor_id;sensor_type;location;lat;lon;timestamp;P1;durP1;ratioP1;P2;durP2;ratioP2
22363;SDS011;11349;53.412;-1.328;2023-07-08T00:02:11;6.90;;;3.63;;
22363;SDS011;11349;53.412;-1.328;2023-07-08T00:04:38;5.53;;;3.47;;
22363;SDS011;11349;53.412;-1.328;2023-07-08T00:07:04;6.53;;;3.45;;
22363;SDS011;11349;53.412;-1.328;2023-07-08T00:09:32;7.20;;;3.63;;
22363;SDS011;11349;53.412;-1.328;2023-07-08T00:11:58;8.20;;;3.63;;
22363;SDS011;11349;53.412;-1.328;2023-07-08T00:14:24;6.90;;;3.28;;
22363;SDS011;11349;53.412;-1.328;2023-07-08T00:16:49;7.57;;;4.10;;
22363;SDS011;11349;53.412;-1.328;2023-07-08T00:19:16;6.43;;;3.33;;
22363;SDS011;11349;53.412;-1.328;2023-07-08T00:21:48;8.10;;;3.65;;
22363;SDS011;11349;53.412;-1.328;2023-07-08T00:24:16;7.60;;;3.42;;
22363;SDS011;11349;53.412;-1.328;2023-07-08T00:26:42;7.97;;;3.92;;
22363;SDS011;11349;53.412;-1.328;2023-07-08T00:29:08;7.45;;;4.03;;
22363;SDS011;11349;53.412;-1.328;2023-07-08T00:31:35;7.13;;;3.95;;
22363;SDS011;11349;53.412;-1.328;2023-07-08T00:34:01;9.23;;;4.18;;
22363;SDS011;11349;53.412;-1.328;2023-07-08T00:36:28;7.00;;;4.05;;
22363;SDS011;11349;53.412;-1.328;2023-07-08T00:38:54;10.30;;;6.25;;
22363;SDS011;11349;53.412;-1.328;2023-07-08T00:41:22;9.38;;;5.25;;
22363;SDS011;11349;53.412;-1.328;2023-07-08T00:43:51;8.85;;;5.40;;
22363;SDS011;11349;53.412;-1.328;2023-07-08T00:46:25;10.57;;;4.80;;
22363;SDS011;11349;53.412;-1.328;2023-07-08T00:51:37;6.28;;;4.05;;
22363;SDS011;11349;53.412;-1.328;2023-07-08T00:54:11;8.30;;;4.38;;
22363;SDS011;11349;53.412;-1.328;2023-07-08T00:56:49;7.40;;;3.70;;
22363;SDS011;11349;53.412;-1.328;2023-07-08T01:01:53;9.90;;;6.93;;
22363;SDS011;11349;53.412;-1.328;2023-07-08T01:04:24;12.68;;;6.95;;
22363;SDS011;11349;53.412;-1.328;2023-07-08T01:06:58;9.40;;;6.20;;
22363;SDS011;11349;53.412;-1.328;2023-07-08T01:09:32;8.27;;;6.43;;
22363;SDS011;11349;53.412;-1.328;2023-07-08T01:12:02;9.95;;;6.60;;
22363;SDS011;11349;53.412;-1.328;2023-07-08T01:14:31;9.55;;;6.40;;
22363;SDS011;11349;53.412;-1.328;2023-07-08T01:16:59;7.72;;;5.55;;
22363;SDS011;11349;53.412;-1.328;2023-07-08T01:19:25;8.07;;;5.13;;
22363;SDS011;11349;53.412;-1.328;2023-07-08T01:22:04;8.73;;;5.10;;
22363;SDS011;11349;53.412;-1.328;2023-07-08T01:24:31;7.22;;;5.32;;
22363;SDS011;11349;53.412;-1.328;2023-07-08T01:27:02;9.57;;;4.47;;
22363;SDS011;11349;53.412;-1.328;2023-07-08T01:29:31;11.70;;;5.07;;
22363;SDS011;11349;53.412;-1.328;2023-07-08T01:31:58;8.65;;;4.35;;
22363;SDS011;11349;53.412;-1.328;2023-07-08T01:34:27;7.65;;;4.85;;
22363;SDS011;11349;53.412;-1.328;2023-07-08T01:36:58;8.65;;;5.10;;
22363;SDS011;11349;53.412;-1.328;2023-07-08T01:39:26;7.32;;;4.32;;
22363;SDS011;11349;53.412;-1.328;2023-07-08T01:41:55;9.52;;;5.30;;
22363;SDS011;11349;53.412;-1.328;2023-07-08T01:44:29;9.15;;;4.50;;
22363;SDS011;11349;53.412;-1.328;2023-07-08T01:46:55;7.13;;;4.30;;
22363;SDS011;11349;53.412;-1.328;2023-07-08T01:49:25;8.90;;;4.47;;
22363;SDS011;11349;53.412;-1.328;2023-07-08T01:51:52;8.20;;;4.70;;
22363;SDS011;11349;53.412;-1.328;2023-07-08T01:54:18;6.60;;;4.47;;
22363;SDS011;11349;53.412;-1.328;2023-07-08T01:56:43;9.90;;;4.35;;
22363;SDS011;11349;53.412;-1.328;2023-07-08T01:59:09;7.15;;;3.78;;
22363;SDS011;11349;53.412;-1.328;2023-07-08T02:01:35;9.63;;;4.65;;
22363;SDS011;11349;53.412;-1.328;2023-07-08T02:04:01;9.43;;;4.85;;
22363;SDS011;11349;53.412;-1.328;2023-07-08T02:06:26;8.38;;;3.90;;
22363;SDS011;11349;53.412;-1.328;2023-07-08T02:08:52;8.50;;;4.80;;
22363;SDS011;11349;53.412;-1.328;2023-07-08T02:11:18;9.88;;;4.63;;
22363;SDS011;11349;53.412;-1.328;2023-07-08T02:13:43;7.28;;;4.20;;
22363;SDS011;11349;53.412;-1.328;2023-07-08T02:16:09;10.70;;;4.18;;
22363;SDS011;11349;53.412;-1.328;2023-07-08T02:18:35;12.27;;;4.90;;
22363;SDS011;11349;53.412;-1.328;2023-07-08T02:21:01;12.52;;;4.88;;
22363;SDS011;11349;53.412;-1.328;2023-07-08T02:23:26;8.20;;;4.25;;
22363;SDS011;11349;53.412;-1.328;2023-07-08T02:25:52;8.43;;;4.65;;
22363;SDS011;11349;53.412;-1.328;2023-07-08T02:28:20;11.35;;;4.78;;
22363;SDS011;11349;53.412;-1.328;2023-07-08T02:30:46;8.07;;;4.20;;
22363;SDS011;11349;53.412;-1.328;2023-07-08T02:33:12;10.32;;;4.13;;
22363;SDS011;11349;53.412;-1.328;2023-07-08T02:35:39;8.10;;;4.40;;
22363;SDS011;11349;53.412;-1.328;2023-07-08T02:38:05;9.25;;;4.40;;
22363;SDS011;11349;53.412;-1.328;2023-07-08T02:40:31;8.88;;;5.45;;
22363;SDS011;11349;53.412;-1.328;2023-07-08T02:42:57;9.52;;;4.13;;
22363;SDS011;11349;53.412;-1.328;2023-07-08T02:45:22;8.73;;;4.40;;
22363;SDS011;11349;53.412;-1.328;2023-07-08T02:47:48;7.35;;;4.63;;
22363;SDS011;11349;53.412;-1.328;2023-07-08T02:50:14;7.18;;;4.38;;
22363;SDS011;11349;53.412;-1.328;2023-07-08T02:52:39;9.93;;;4.75;;
22363;SDS011;11349;53.412;-1.328;2023-07-08T02:55:05;8.93;;;5.28;;
22363;SDS011;11349;53.412;-1.328;2023-07-08T02:57:31;9.40;;;4.55;;
22363;SDS011;11349;53.412;-1.328;2023-07-08T02:59:57;8.80;;;4.72;;
22363;SDS011;11349;53.412;-1.328;2023-07-08T03:02:23;6.53;;;4.60;;
22363;SDS011;11349;53.412;-1.328;2023-07-08T03:04:49;8.32;;;4.38;;
22363;SDS011;11349;53.412;-1.328;2023-07-08T03:07:15;5.95;;;4.13;;
22363;SDS011;11349;53.412;-1.328;2023-07-08T03:09:42;8.20;;;4.22;;
22363;SDS011;11349;53.412;-1.328;2023-07-08T03:12:09;6.82;;;4.40;;
22363;SDS011;11349;53.412;-1.328;2023-07-08T03:14:36;9.18;;;4.55;;
22363;SDS011;11349;53.412;-1.328;2023-07-08T03:17:02;9.10;;;4.55;;
22363;SDS011;11349;53.412;-1.328;2023-07-08T03:19:28;8.57;;;4.57;;
22363;SDS011;11349;53.412;-1.328;2023-07-08T03:21:54;7.18;;;4.38;;
22363;SDS011;11349;53.412;-1.328;2023-07-08T03:24:20;10.30;;;4.43;;
22363;SDS011;11349;53.412;-1.328;2023-07-08T03:26:46;12.60;;;5.20;;
22363;SDS011;11349;53.412;-1.328;2023-07-08T03:29:15;8.13;;;4.82;;
22363;SDS011;11349;53.412;-1.328;2023-07-08T03:31:43;7.03;;;4.55;;
22363;SDS011;11349;53.412;-1.328;2023-07-08T03:34:10;10.90;;;4.80;;
22363;SDS011;11349;53.412;-1.328;2023-07-08T03:36:47;9.05;;;5.00;;
22363;SDS011;11349;53.412;-1.328;2023-07-08T03:39:19;9.40;;;5.72;;
22363;SDS011;11349;53.412;-1.328;2023-07-08T03:41:47;8.63;;;5.05;;
22363;SDS011;11349;53.412;-1.328;2023-07-08T03:44:14;9.02;;;5.28;;
22363;SDS011;11349;53.412;-1.328;2023-07-08T03:46:43;10.20;;;5.45;;
22363;SDS011;11349;53.412;-1.328;2023-07-08T03:49:10;7.40;;;4.55;;
22363;SDS011;11349;53.412;-1.328;2023-07-08T03:51:36;12.25;;;5.05;;
22363;SDS011;11349;53.412;-1.328;2023-07-08T03:54:04;7.85;;;5.03;;
22363;SDS011;11349;53.412;-1.328;2023-07-08T03:56:30;10.68;;;4.93;;
22363;SDS011;11349;53.412;-1.328;2023-07-08T03:58:57;7.90;;;5.10;;
22363;SDS011;11349;53.412;-1.328;2023-07-08T04:01:24;10.20;;;5.22;;
22363;SDS011;11349;53.412;-1.328;2023-07-08T04:03:51;9.20;;;5.38;;
22363;SDS011;11349;53.412;-1.328;2023-07-08T04:06:18;8.13;;;4.82;;
22363;SDS011;11349;53.412;-1.328;2023-07-08T04:08:44;8.98;;;4.88;;
22363;SDS011;11349;53.412;-1.328;2023-07-08T04:11:14;9.93;;;4.82;;
22363;SDS011;11349;53.412;-1.328;2023-07-08T04:13:41;9.88;;;6.28;;
22363;SDS011;11349;53.412;-1.328;2023-07-08T04:16:07;8.82;;;5.05;;
22363;SDS011;11349;53.412;-1.328;2023-07-08T04:18:44;10.20;;;5.25;;
22363;SDS011;11349;53.412;-1.328;2023-07-08T04:21:10;9.63;;;4.95;;
22363;SDS011;11349;53.412;-1.328;2023-07-08T04:23:36;13.05;;;5.40;;
22363;SDS011;11349;53.412;-1.328;2023-07-08T04:26:02;9.30;;;4.80;;
22363;SDS011;11349;53.412;-1.328;2023-07-08T04:28:28;9.43;;;4.75;;
22363;SDS011;11349;53.412;-1.328;2023-07-08T04:30:53;7.85;;;5.07;;
22363;SDS011;11349;53.412;-1.328;2023-07-08T04:33:19;9.35;;;4.80;;
22363;SDS011;11349;53.412;-1.328;2023-07-08T04:35:45;10.80;;;5.35;;
22363;SDS011;11349;53.412;-1.328;2023-07-08T04:38:16;9.30;;;5.18;;
22363;SDS011;11349;53.412;-1.328;2023-07-08T04:40:44;9.68;;;5.30;;
22363;SDS011;11349;53.412;-1.328;2023-07-08T04:43:11;9.20;;;4.60;;
22363;SDS011;11349;53.412;-1.328;2023-07-08T04:45:37;9.65;;;5.55;;
22363;SDS011;11349;53.412;-1.328;2023-07-08T04:48:04;10.93;;;5.00;;
22363;SDS011;11349;53.412;-1.328;2023-07-08T04:50:47;9.40;;;5.20;;
22363;SDS011;11349;53.412;-1.328;2023-07-08T04:53:14;12.07;;;5.15;;
22363;SDS011;11349;53.412;-1.328;2023-07-08T04:55:46;10.30;;;5.15;;
22363;SDS011;11349;53.412;-1.328;2023-07-08T04:58:15;8.20;;;5.38;;
22363;SDS011;11349;53.412;-1.328;2023-07-08T05:00:40;8.55;;;4.75;;
22363;SDS011;11349;53.412;-1.328;2023-07-08T05:03:06;11.60;;;6.40;;
22363;SDS011;11349;53.412;-1.328;2023-07-08T05:05:32;8.60;;;5.05;;
22363;SDS011;11349;53.412;-1.328;2023-07-08T05:07:58;15.27;;;7.55;;
22363;SDS011;11349;53.412;-1.328;2023-07-08T05:10:23;9.93;;;5.75;;
22363;SDS011;11349;53.412;-1.328;2023-07-08T05:12:49;7.85;;;5.93;;
22363;SDS011;11349;53.412;-1.328;2023-07-08T05:15:15;8.75;;;5.75;;
22363;SDS011;11349;53.412;-1.328;2023-07-08T05:17:41;10.63;;;6.32;;
22363;SDS011;11349;53.412;-1.328;2023-07-08T05:20:08;11.93;;;5.60;;
22363;SDS011;11349;53.412;-1.328;2023-07-08T05:22:35;10.57;;;6.32;;
22363;SDS011;11349;53.412;-1.328;2023-07-08T05:25:01;11.40;;;5.47;;
22363;SDS011;11349;53.412;-1.328;2023-07-08T05:27:28;9.50;;;5.55;;
22363;SDS011;11349;53.412;-1.328;2023-07-08T05:29:54;10.90;;;5.07;;
22363;SDS011;11349;53.412;-1.328;2023-07-08T05:32:20;9.07;;;5.10;;
22363;SDS011;11349;53.412;-1.328;2023-07-08T05:34:46;8.98;;;5.35;;
22363;SDS011;11349;53.412;-1.328;2023-07-08T05:37:12;9.13;;;5.90;;
22363;SDS011;11349;53.412;-1.328;2023-07-08T05:39:38;8.27;;;5.35;;
22363;SDS011;11349;53.412;-1.328;2023-07-08T05:42:04;16.27;;;6.63;;
22363;SDS011;11349;53.412;-1.328;2023-07-08T05:44:30;8.43;;;5.45;;
22363;SDS011;11349;53.412;-1.328;2023-07-08T05:46:56;11.38;;;6.13;;
22363;SDS011;11349;53.412;-1.328;2023-07-08T05:49:21;11.02;;;6.28;;
22363;SDS011;11349;53.412;-1.328;2023-07-08T05:51:47;11.00;;;5.90;;
22363;SDS011;11349;53.412;-1.328;2023-07-08T05:54:13;10.30;;;6.07;;
22363;SDS011;11349;53.412;-1.328;2023-07-08T05:56:40;10.35;;;5.53;;
22363;SDS011;11349;53.412;-1.328;2023-07-08T05:59:06;10.25;;;5.70;;
22363;SDS011;11349;53.412;-1.328;2023-07-08T06:01:32;10.82;;;5.60;;
22363;SDS011;11349;53.412;-1.328;2023-07-08T06:03:58;9.82;;;5.53;;
22363;SDS011;11349;53.412;-1.328;2023-07-08T06:06:24;12.18;;;5.95;;
22363;SDS011;11349;53.412;-1.328;2023-07-08T06:08:51;11.68;;;6.45;;
22363;SDS011;11349;53.412;-1.328;2023-07-08T06:11:17;10.45;;;5.60;;
22363;SDS011;11349;53.412;-1.328;2023-07-08T06:13:42;9.75;;;6.30;;
22363;SDS011;11349;53.412;-1.328;2023-07-08T06:16:08;11.88;;;6.40;;
22363;SDS011;11349;53.412;-1.328;2023-07-08T06:18:34;7.72;;;5.07;;
22363;SDS011;11349;53.412;-1.328;2023-07-08T06:21:00;9.85;;;5.70;;
22363;SDS011;11349;53.412;-1.328;2023-07-08T06:23:26;12.95;;;6.45;;
22363;SDS011;11349;53.412;-1.328;2023-07-08T06:25:53;9.68;;;5.22;;
22363;SDS011;11349;53.412;-1.328;2023-07-08T06:28:19;12.45;;;5.10;;
22363;SDS011;11349;53.412;-1.328;2023-07-08T06:30:45;10.63;;;5.68;;
22363;SDS011;11349;53.412;-1.328;2023-07-08T06:33:11;12.82;;;6.57;;
22363;SDS011;11349;53.412;-1.328;2023-07-08T06:35:38;9.40;;;6.07;;
22363;SDS011;11349;53.412;-1.328;2023-07-08T06:38:04;11.85;;;5.72;;
22363;SDS011;11349;53.412;-1.328;2023-07-08T06:40:31;16.77;;;6.65;;
22363;SDS011;11349;53.412;-1.328;2023-07-08T06:42:57;10.77;;;5.90;;
22363;SDS011;11349;53.412;-1.328;2023-07-08T06:45:23;9.63;;;5.05;;
22363;SDS011;11349;53.412;-1.328;2023-07-08T06:47:48;9.45;;;5.80;;
22363;SDS011;11349;53.412;-1.328;2023-07-08T06:50:14;10.93;;;6.05;;
22363;SDS011;11349;53.412;-1.328;2023-07-08T06:52:40;10.77;;;5.22;;
22363;SDS011;11349;53.412;-1.328;2023-07-08T06:55:07;11.75;;;5.97;;
22363;SDS011;11349;53.412;-1.328;2023-07-08T06:57:34;10.10;;;5.60;;
22363;SDS011;11349;53.412;-1.328;2023-07-08T07:00:03;12.25;;;5.72;;
22363;SDS011;11349;53.412;-1.328;2023-07-08T07:02:29;11.95;;;6.20;;
22363;SDS011;11349;53.412;-1.328;2023-07-08T07:04:55;10.50;;;5.68;;
22363;SDS011;11349;53.412;-1.328;2023-07-08T07:07:21;10.68;;;6.20;;
22363;SDS011;11349;53.412;-1.328;2023-07-08T07:09:46;10.68;;;5.70;;
22363;SDS011;11349;53.412;-1.328;2023-07-08T07:12:12;9.80;;;6.13;;
22363;SDS011;11349;53.412;-1.328;2023-07-08T07:14:38;12.50;;;5.70;;
22363;SDS011;11349;53.412;-1.328;2023-07-08T07:17:03;10.25;;;5.90;;
22363;SDS011;11349;53.412;-1.328;2023-07-08T07:19:29;10.32;;;6.28;;
22363;SDS011;11349;53.412;-1.328;2023-07-08T07:21:55;10.98;;;6.20;;
22363;SDS011;11349;53.412;-1.328;2023-07-08T07:24:21;10.27;;;6.00;;
22363;SDS011;11349;53.412;-1.328;2023-07-08T07:26:46;12.90;;;7.10;;
22363;SDS011;11349;53.412;-1.328;2023-07-08T07:29:15;12.52;;;6.45;;
22363;SDS011;11349;53.412;-1.328;2023-07-08T07:31:42;10.57;;;6.43;;
22363;SDS011;11349;53.412;-1.328;2023-07-08T07:34:08;15.25;;;7.95;;
22363;SDS011;11349;53.412;-1.328;2023-07-08T07:36:34;12.00;;;6.07;;
22363;SDS011;11349;53.412;-1.328;2023-07-08T07:39:00;10.77;;;6.85;;
22363;SDS011;11349;53.412;-1.328;2023-07-08T07:41:26;12.00;;;6.43;;
22363;SDS011;11349;53.412;-1.328;2023-07-08T07:43:51;10.13;;;5.82;;
22363;SDS011;11349;53.412;-1.328;2023-07-08T07:46:17;11.18;;;5.65;;
22363;SDS011;11349;53.412;-1.328;2023-07-08T07:48:43;11.30;;;6.30;;
22363;SDS011;11349;53.412;-1.328;2023-07-08T07:51:09;14.65;;;6.25;;
22363;SDS011;11349;53.412;-1.328;2023-07-08T07:53:38;12.98;;;6.22;;
22363;SDS011;11349;53.412;-1.328;2023-07-08T07:56:04;11.77;;;6.20;;
22363;SDS011;11349;53.412;-1.328;2023-07-08T07:58:30;10.23;;;5.05;;
22363;SDS011;11349;53.412;-1.328;2023-07-08T08:00:57;11.45;;;5.90;;
22363;SDS011;11349;53.412;-1.328;2023-07-08T08:03:22;15.90;;;6.15;;
22363;SDS011;11349;53.412;-1.328;2023-07-08T08:05:48;13.68;;;5.60;;
22363;SDS011;11349;53.412;-1.328;2023-07-08T08:08:14;11.02;;;5.43;;
22363;SDS011;11349;53.412;-1.328;2023-07-08T08:10:41;11.40;;;5.05;;
22363;SDS011;11349;53.412;-1.328;2023-07-08T08:13:07;7.57;;;4.57;;
22363;SDS011;11349;53.412;-1.328;2023-07-08T08:15:33;10.90;;;5.45;;
22363;SDS011;11349;53.412;-1.328;2023-07-08T08:17:59;9.48;;;5.70;;
22363;SDS011;11349;53.412;-1.328;2023-07-08T08:20:25;8.90;;;4.35;;
22363;SDS011;11349;53.412;-1.328;2023-07-08T08:22:51;9.70;;;4.88;;
22363;SDS011;11349;53.412;-1.328;2023-07-08T08:25:18;9.85;;;4.53;;
22363;SDS011;11349;53.412;-1.328;2023-07-08T08:27:45;9.75;;;4.90;;
22363;SDS011;11349;53.412;-1.328;2023-07-08T08:30:11;11.30;;;6.10;;
22363;SDS011;11349;53.412;-1.328;2023-07-08T08:32:37;9.32;;;4.38;;
22363;SDS011;11349;53.412;-1.328;2023-07-08T08:35:03;8.77;;;4.70;;
22363;SDS011;11349;53.412;-1.328;2023-07-08T08:37:29;8.10;;;5.15;;
22363;SDS011;11349;53.412;-1.328;2023-07-08T08:39:55;9.93;;;5.15;;
22363;SDS011;11349;53.412;-1.328;2023-07-08T08:45:00;10.32;;;5.40;;
22363;SDS011;11349;53.412;-1.328;2023-07-08T08:52:54;11.18;;;6.05;;
22363;SDS011;11349;53.412;-1.328;2023-07-08T08:55:22;8.27;;;5.15;;
22363;SDS011;11349;53.412;-1.328;2023-07-08T09:00:47;11.65;;;5.93;;
22363;SDS011;11349;53.412;-1.328;2023-07-08T09:03:16;14.90;;;6.53;;
22363;SDS011;11349;53.412;-1.328;2023-07-08T09:05:46;13.10;;;6.28;;
22363;SDS011;11349;53.412;-1.328;2023-07-08T09:08:13;11.45;;;5.97;;
22363;SDS011;11349;53.412;-1.328;2023-07-08T09:19:14;10.57;;;4.90;;
22363;SDS011;11349;53.412;-1.328;2023-07-08T09:21:51;20.48;;;8.70;;
22363;SDS011;11349;53.412;-1.328;2023-07-08T09:27:14;22.08;;;7.05;;
22363;SDS011;11349;53.412;-1.328;2023-07-08T09:29:40;14.32;;;7.30;;
22363;SDS011;11349;53.412;-1.328;2023-07-08T09:32:11;10.93;;;6.35;;
22363;SDS011;11349;53.412;-1.328;2023-07-08T09:34:43;12.13;;;6.53;;
22363;SDS011;11349;53.412;-1.328;2023-07-08T09:37:20;12.30;;;6.72;;
22363;SDS011;11349;53.412;-1.328;2023-07-08T09:39:58;13.60;;;8.20;;
22363;SDS011;11349;53.412;-1.328;2023-07-08T09:42:26;16.05;;;8.95;;
22363;SDS011;11349;53.412;-1.328;2023-07-08T09:44:57;10.52;;;6.30;;
22363;SDS011;11349;53.412;-1.328;2023-07-08T09:47:27;10.18;;;6.32;;
22363;SDS011;11349;53.412;-1.328;2023-07-08T09:49:58;14.10;;;6.35;;
22363;SDS011;11349;53.412;-1.328;2023-07-08T09:52:25;11.18;;;6.20;;
22363;SDS011;11349;53.412;-1.328;2023-07-08T09:54:54;17.90;;;7.90;;
22363;SDS011;11349;53.412;-1.328;2023-07-08T09:59:59;17.38;;;8.23;;
22363;SDS011;11349;53.412;-1.328;2023-07-08T10:02:30;15.48;;;9.23;;
22363;SDS011;11349;53.412;-1.328;2023-07-08T10:04:57;13.68;;;7.30;;
22363;SDS011;11349;53.412;-1.328;2023-07-08T10:07:35;13.13;;;7.68;;
22363;SDS011;11349;53.412;-1.328;2023-07-08T10:10:02;15.27;;;8.55;;
22363;SDS011;11349;53.412;-1.328;2023-07-08T10:12:33;17.17;;;8.63;;
22363;SDS011;11349;53.412;-1.328;2023-07-08T10:15:06;15.65;;;9.23;;
22363;SDS011;11349;53.412;-1.328;2023-07-08T10:17:45;17.02;;;9.23;;
22363;SDS011;11349;53.412;-1.328;2023-07-08T10:20:12;16.48;;;9.77;;
22363;SDS011;11349;53.412;-1.328;2023-07-08T10:22:43;16.23;;;8.75;;
22363;SDS011;11349;53.412;-1.328;2023-07-08T10:25:49;15.60;;;9.50;;
22363;SDS011;11349;53.412;-1.328;2023-07-08T10:31:11;14.70;;;8.18;;
22363;SDS011;11349;53.412;-1.328;2023-07-08T10:33:55;16.00;;;8.68;;
22363;SDS011;11349;53.412;-1.328;2023-07-08T10:44:49;20.58;;;9.95;;
22363;SDS011;11349;53.412;-1.328;2023-07-08T10:47:36;17.65;;;9.85;;
22363;SDS011;11349;53.412;-1.328;2023-07-08T10:50:37;15.48;;;10.00;;
22363;SDS011;11349;53.412;-1.328;2023-07-08T11:06:56;13.05;;;8.55;;
22363;SDS011;11349;53.412;-1.328;2023-07-08T11:09:35;17.65;;;9.48;;
22363;SDS011;11349;53.412;-1.328;2023-07-08T11:15:01;17.33;;;10.50;;
22363;SDS011;11349;53.412;-1.328;2023-07-08T11:17:35;18.33;;;11.27;;
22363;SDS011;11349;53.412;-1.328;2023-07-08T11:23:05;17.70;;;11.40;;
22363;SDS011;11349;53.412;-1.328;2023-07-08T11:25:42;18.30;;;11.65;;
22363;SDS011;11349;53.412;-1.328;2023-07-08T11:28:12;13.45;;;9.60;;
22363;SDS011;11349;53.412;-1.328;2023-07-08T11:30:43;16.45;;;9.80;;
22363;SDS011;11349;53.412;-1.328;2023-07-08T11:33:11;18.95;;;10.32;;
22363;SDS011;11349;53.412;-1.328;2023-07-08T11:35:57;16.85;;;11.95;;
22363;SDS011;11349;53.412;-1.328;2023-07-08T11:38:25;15.27;;;11.50;;
22363;SDS011;11349;53.412;-1.328;2023-07-08T11:41:02;18.27;;;11.88;;
22363;SDS011;11349;53.412;-1.328;2023-07-08T11:46:20;16.20;;;9.20;;
22363;SDS011;11349;53.412;-1.328;2023-07-08T11:48:51;12.55;;;8.02;;
22363;SDS011;11349;53.412;-1.328;2023-07-08T11:51:27;11.98;;;7.45;;
22363;SDS011;11349;53.412;-1.328;2023-07-08T11:56:47;18.83;;;10.52;;
22363;SDS011;11349;53.412;-1.328;2023-07-08T11:59:16;13.00;;;9.27;;
22363;SDS011;11349;53.412;-1.328;2023-07-08T12:04:20;17.02;;;13.05;;
22363;SDS011;11349;53.412;-1.328;2023-07-08T12:06:53;17.67;;;12.05;;
22363;SDS011;11349;53.412;-1.328;2023-07-08T12:09:46;16.73;;;11.82;;
22363;SDS011;11349;53.412;-1.328;2023-07-08T12:12:19;20.40;;;13.05;;
22363;SDS011;11349;53.412;-1.328;2023-07-08T12:14:49;15.32;;;11.38;;
22363;SDS011;11349;53.412;-1.328;2023-07-08T12:17:18;19.85;;;12.93;;
22363;SDS011;11349;53.412;-1.328;2023-07-08T12:19:44;18.38;;;12.77;;
22363;SDS011;11349;53.412;-1.328;2023-07-08T12:22:12;21.65;;;12.85;;
22363;SDS011;11349;53.412;-1.328;2023-07-08T12:24:38;17.27;;;12.65;;
22363;SDS011;11349;53.412;-1.328;2023-07-08T12:27:05;19.48;;;11.63;;
22363;SDS011;11349;53.412;-1.328;2023-07-08T12:29:31;16.80;;;10.13;;
22363;SDS011;11349;53.412;-1.328;2023-07-08T12:31:57;14.75;;;11.82;;
22363;SDS011;11349;53.412;-1.328;2023-07-08T12:34:23;18.30;;;12.23;;
22363;SDS011;11349;53.412;-1.328;2023-07-08T12:36:50;14.15;;;10.98;;
22363;SDS011;11349;53.412;-1.328;2023-07-08T12:39:17;15.23;;;11.23;;
22363;SDS011;11349;53.412;-1.328;2023-07-08T12:41:44;17.63;;;10.00;;
22363;SDS011;11349;53.412;-1.328;2023-07-08T12:44:14;18.08;;;10.25;;
22363;SDS011;11349;53.412;-1.328;2023-07-08T12:46:46;15.15;;;10.25;;
22363;SDS011;11349;53.412;-1.328;2023-07-08T12:49:14;17.80;;;10.57;;
22363;SDS011;11349;53.412;-1.328;2023-07-08T12:51:42;16.60;;;10.25;;
22363;SDS011;11349;53.412;-1.328;2023-07-08T12:54:09;16.75;;;11.05;;
22363;SDS011;11349;53.412;-1.328;2023-07-08T12:56:36;16.80;;;10.40;;
22363;SDS011;11349;53.412;-1.328;2023-07-08T12:59:03;18.25;;;9.57;;
22363;SDS011;11349;53.412;-1.328;2023-07-08T13:01:30;15.82;;;10.10;;
22363;SDS011;11349;53.412;-1.328;2023-07-08T13:04:02;14.48;;;10.77;;
22363;SDS011;11349;53.412;-1.328;2023-07-08T13:06:31;16.40;;;11.55;;
22363;SDS011;11349;53.412;-1.328;2023-07-08T13:09:07;15.40;;;11.13;;
22363;SDS011;11349;53.412;-1.328;2023-07-08T13:11:45;18.13;;;11.57;;
22363;SDS011;11349;53.412;-1.328;2023-07-08T13:14:11;17.73;;;11.55;;
22363;SDS011;11349;53.412;-1.328;2023-07-08T13:16:39;15.05;;;10.23;;
22363;SDS011;11349;53.412;-1.328;2023-07-08T13:19:05;17.52;;;10.90;;
22363;SDS011;11349;53.412;-1.328;2023-07-08T13:21:31;17.05;;;9.57;;
22363;SDS011;11349;53.412;-1.328;2023-07-08T13:23:57;16.13;;;10.05;;
22363;SDS011;11349;53.412;-1.328;2023-07-08T13:26:27;14.93;;;9.00;;
22363;SDS011;11349;53.412;-1.328;2023-07-08T13:29:02;16.65;;;9.50;;
22363;SDS011;11349;53.412;-1.328;2023-07-08T13:31:33;16.02;;;10.05;;
22363;SDS011;11349;53.412;-1.328;2023-07-08T13:34:05;13.07;;;9.52;;
22363;SDS011;11349;53.412;-1.328;2023-07-08T13:36:34;15.60;;;9.70;;
22363;SDS011;11349;53.412;-1.328;2023-07-08T13:39:05;15.52;;;9.85;;
22363;SDS011;11349;53.412;-1.328;2023-07-08T13:41:37;22.77;;;8.85;;
22363;SDS011;11349;53.412;-1.328;2023-07-08T13:44:09;14.57;;;8.50;;
22363;SDS011;11349;53.412;-1.328;2023-07-08T13:46:39;17.95;;;9.50;;
22363;SDS011;11349;53.412;-1.328;2023-07-08T13:49:11;13.95;;;9.02;;
22363;SDS011;11349;53.412;-1.328;2023-07-08T13:51:38;19.20;;;9.95;;
22363;SDS011;11349;53.412;-1.328;2023-07-08T13:54:26;18.27;;;9.52;;
22363;SDS011;11349;53.412;-1.328;2023-07-08T13:56:59;17.95;;;9.77;;
22363;SDS011;11349;53.412;-1.328;2023-07-08T13:59:26;14.73;;;9.27;;
22363;SDS011;11349;53.412;-1.328;2023-07-08T14:01:53;13.98;;;8.98;;
22363;SDS011;11349;53.412;-1.328;2023-07-08T14:04:28;14.95;;;8.55;;
22363;SDS011;11349;53.412;-1.328;2023-07-08T14:06:56;12.00;;;8.45;;
22363;SDS011;11349;53.412;-1.328;2023-07-08T14:09:22;13.57;;;8.80;;
22363;SDS011;11349;53.412;-1.328;2023-07-08T14:11:49;19.50;;;10.38;;
22363;SDS011;11349;53.412;-1.328;2023-07-08T14:14:16;14.85;;;9.35;;
22363;SDS011;11349;53.412;-1.328;2023-07-08T14:16:46;13.45;;;8.18;;
22363;SDS011;11349;53.412;-1.328;2023-07-08T14:19:21;13.70;;;7.55;;
22363;SDS011;11349;53.412;-1.328;2023-07-08T14:21:57;12.70;;;7.15;;
22363;SDS011;11349;53.412;-1.328;2023-07-08T14:24:26;10.73;;;6.32;;
22363;SDS011;11349;53.412;-1.328;2023-07-08T14:26:52;10.73;;;5.50;;
22363;SDS011;11349;53.412;-1.328;2023-07-08T14:29:18;9.63;;;5.28;;
22363;SDS011;11349;53.412;-1.328;2023-07-08T14:31:45;8.63;;;4.85;;
22363;SDS011;11349;53.412;-1.328;2023-07-08T14:34:20;10.35;;;6.25;;
22363;SDS011;11349;53.412;-1.328;2023-07-08T14:36:48;11.68;;;7.60;;
22363;SDS011;11349;53.412;-1.328;2023-07-08T14:39:15;12.52;;;7.93;;
22363;SDS011;11349;53.412;-1.328;2023-07-08T14:41:43;13.00;;;7.93;;
22363;SDS011;11349;53.412;-1.328;2023-07-08T14:44:23;9.93;;;6.22;;
22363;SDS011;11349;53.412;-1.328;2023-07-08T14:46:55;10.95;;;7.22;;
22363;SDS011;11349;53.412;-1.328;2023-07-08T14:49:22;10.95;;;6.90;;
22363;SDS011;11349;53.412;-1.328;2023-07-08T14:51:48;10.70;;;7.00;;
22363;SDS011;11349;53.412;-1.328;2023-07-08T14:54:15;11.07;;;7.72;;
22363;SDS011;11349;53.412;-1.328;2023-07-08T14:56:42;11.13;;;7.13;;
22363;SDS011;11349;53.412;-1.328;2023-07-08T14:59:11;14.13;;;8.88;;
22363;SDS011;11349;53.412;-1.328;2023-07-08T15:01:40;11.85;;;9.18;;
22363;SDS011;11349;53.412;-1.328;2023-07-08T15:04:13;13.75;;;8.52;;
22363;SDS011;11349;53.412;-1.328;2023-07-08T15:06:43;13.60;;;8.80;;
22363;SDS011;11349;53.412;-1.328;2023-07-08T15:09:10;13.38;;;8.30;;
22363;SDS011;11349;53.412;-1.328;2023-07-08T15:11:37;16.17;;;9.73;;
22363;SDS011;11349;53.412;-1.328;2023-07-08T15:14:04;13.07;;;8.68;;
22363;SDS011;11349;53.412;-1.328;2023-07-08T15:16:35;13.63;;;8.45;;
22363;SDS011;11349;53.412;-1.328;2023-07-08T15:19:00;12.93;;;8.38;;
22363;SDS011;11349;53.412;-1.328;2023-07-08T15:21:26;14.15;;;8.45;;
22363;SDS011;11349;53.412;-1.328;2023-07-08T15:23:52;13.43;;;8.70;;
22363;SDS011;11349;53.412;-1.328;2023-07-08T15:26:18;14.57;;;9.23;;
22363;SDS011;11349;53.412;-1.328;2023-07-08T15:28:47;15.40;;;9.57;;
22363;SDS011;11349;53.412;-1.328;2023-07-08T15:31:16;17.23;;;9.93;;
22363;SDS011;11349;53.412;-1.328;2023-07-08T15:33:45;17.25;;;8.90;;
22363;SDS011;11349;53.412;-1.328;2023-07-08T15:36:11;13.55;;;8.65;;
22363;SDS011;11349;53.412;-1.328;2023-07-08T15:38:39;11.35;;;7.85;;
22363;SDS011;11349;53.412;-1.328;2023-07-08T15:41:05;11.07;;;7.47;;
22363;SDS011;11349;53.412;-1.328;2023-07-08T15:43:43;12.00;;;6.72;;